Time;durP1;ratioP1;P1;durP2;ratioP2;P2;SDS_P1;SDS_P2;PMS_P1;PMS_P2;Temp;Humidity;BMP_temperature;BMP_pressure;BME280_temperature;BME280_humidity;BME280_pressure;Samples;Min_cycle;Max_cycle;Signal;HPM_P1;HPM_P2
2022/12/18 00:00:29;;;;;;;50.93;19.13;;;-4.30;99.90;;;;;;5222901;28;20187;-50
2022/12/18 00:03:00;;;;;;;55.97;21.70;;;-4.30;99.90;;;;;;5224547;28;20810;-50
2022/12/18 00:05:30;;;;;;;51.47;20.33;;;-4.40;99.90;;;;;;5226527;28;20191;-50
2022/12/18 00:08:01;;;;;;;51.40;20.50;;;-4.30;99.90;;;;;;5218788;28;20185;-51
2022/12/18 00:10:32;;;;;;;57.83;22.20;;;-4.30;99.90;;;;;;5222895;28;20183;-50
2022/12/18 00:13:03;;;;;;;60.03;22.90;;;-4.20;99.90;;;;;;5223700;28;20543;-49
2022/12/18 00:15:35;;;;;;;49.77;21.50;;;-4.30;99.90;;;;;;5220402;28;20183;-50
2022/12/18 00:18:06;;;;;;;58.70;23.00;;;-4.30;99.90;;;;;;5235755;28;20195;-50
2022/12/18 00:20:38;;;;;;;59.63;24.53;;;-4.10;99.90;;;;;;5223090;28;20474;-49
2022/12/18 00:23:09;;;;;;;53.43;20.17;;;-4.10;99.90;;;;;;5222672;28;20480;-49
2022/12/18 00:25:39;;;;;;;57.60;21.47;;;-4.30;99.90;;;;;;5221795;28;20526;-49
2022/12/18 00:28:10;;;;;;;58.90;21.97;;;-4.30;99.90;;;;;;5220810;28;20714;-51
2022/12/18 00:30:40;;;;;;;55.70;24.33;;;-4.50;99.90;;;;;;5221912;28;20179;-50
2022/12/18 00:33:11;;;;;;;57.47;21.37;;;-4.40;99.90;;;;;;5224445;28;20218;-48
2022/12/18 00:35:42;;;;;;;52.60;20.07;;;-4.20;99.90;;;;;;5225458;28;20203;-48
2022/12/18 00:38:13;;;;;;;44.20;18.17;;;-4.30;99.90;;;;;;5217602;28;20183;-50
2022/12/18 00:40:44;;;;;;;57.33;21.30;;;-4.40;99.90;;;;;;5221683;28;20276;-48
2022/12/18 00:43:14;;;;;;;48.73;20.40;;;-4.40;99.90;;;;;;5223891;28;20948;-49
2022/12/18 00:45:45;;;;;;;62.10;22.73;;;-4.40;99.90;;;;;;5216064;28;20435;-47
2022/12/18 00:48:16;;;;;;;58.57;22.17;;;-4.50;99.90;;;;;;5215933;28;20184;-49
2022/12/18 00:50:50;;;;;;;55.50;22.03;;;-4.60;99.90;;;;;;5225741;28;20445;-48
2022/12/18 00:53:21;;;;;;;59.57;22.40;;;-4.80;99.90;;;;;;5221250;28;20211;-48
2022/12/18 00:55:51;;;;;;;61.80;22.27;;;-4.80;99.90;;;;;;5203521;28;20433;-48
2022/12/18 00:58:22;;;;;;;49.53;20.33;;;-4.90;99.90;;;;;;5216906;28;20190;-47
2022/12/18 01:00:52;;;;;;;68.90;24.50;;;-5.00;99.90;;;;;;5219711;28;20706;-49
2022/12/18 01:03:23;;;;;;;54.17;21.13;;;-5.10;99.90;;;;;;5223770;28;20552;-48
2022/12/18 01:05:54;;;;;;;47.27;19.53;;;-5.10;99.90;;;;;;5227246;28;20179;-48
2022/12/18 01:08:24;;;;;;;68.10;22.00;;;-5.10;99.90;;;;;;5229143;28;20207;-49
2022/12/18 01:10:55;;;;;;;62.03;21.57;;;-5.20;99.90;;;;;;5224578;28;20632;-48
2022/12/18 01:13:27;;;;;;;48.27;19.87;;;-5.20;99.90;;;;;;5226170;28;20841;-48
2022/12/18 01:15:58;;;;;;;61.13;21.90;;;-5.10;99.90;;;;;;5224203;28;20182;-49
2022/12/18 01:18:28;;;;;;;56.30;20.80;;;-5.00;99.90;;;;;;5224712;28;20986;-50
2022/12/18 01:20:59;;;;;;;47.70;21.37;;;-5.00;99.90;;;;;;5221467;28;20180;-48
2022/12/18 01:23:29;;;;;;;56.73;19.93;;;-5.20;99.90;;;;;;5229417;28;20211;-48
2022/12/18 01:26:09;;;;;;;53.90;21.80;;;-5.10;99.90;;;;;;5227939;28;20179;-50
2022/12/18 01:28:40;;;;;;;61.00;21.90;;;-5.10;99.90;;;;;;5215756;28;20200;-51
2022/12/18 01:31:29;;;;;;;56.90;21.77;;;-5.20;99.90;;;;;;5220878;28;20425;-49
2022/12/18 01:34:01;;;;;;;71.53;23.43;;;-5.20;99.90;;;;;;5214128;28;21177;-50
2022/12/18 01:36:35;;;;;;;65.40;23.30;;;-5.30;99.90;;;;;;5225998;28;20550;-49
2022/12/18 01:39:10;;;;;;;66.70;22.27;;;-5.40;99.90;;;;;;5226158;28;20558;-51
2022/12/18 01:45:09;;;;;;;51.13;22.30;;;-5.60;99.90;;;;;;5219127;28;20437;-50
2022/12/18 01:47:51;;;;;;;66.73;21.67;;;-5.60;99.90;;;;;;5219978;28;20417;-49
2022/12/18 01:50:24;;;;;;;68.87;22.53;;;-5.60;99.90;;;;;;5226491;28;20448;-48
2022/12/18 01:53:00;;;;;;;55.20;20.63;;;-5.70;99.90;;;;;;5223710;28;20460;-49
2022/12/18 01:55:53;;;;;;;65.87;20.83;;;-5.70;99.90;;;;;;5215780;28;20515;-48
2022/12/18 01:58:40;;;;;;;55.03;21.80;;;-5.70;99.90;;;;;;5221559;28;20449;-49
2022/12/18 02:01:11;;;;;;;62.70;21.37;;;-5.80;99.90;;;;;;5225602;28;20438;-48
2022/12/18 02:03:43;;;;;;;66.70;23.00;;;-5.80;99.90;;;;;;5223296;28;20846;-47
2022/12/18 02:06:20;;;;;;;58.47;23.20;;;-5.80;99.90;;;;;;5214299;28;20444;-48
2022/12/18 02:09:07;;;;;;;61.93;23.43;;;-5.70;99.90;;;;;;5240190;28;20638;-48
2022/12/18 02:11:49;;;;;;;68.17;23.53;;;-5.80;99.90;;;;;;5222474;28;20482;-48
2022/12/18 02:14:38;;;;;;;64.40;22.40;;;-5.80;99.90;;;;;;5221356;28;20467;-49
2022/12/18 02:17:19;;;;;;;62.80;23.63;;;-5.80;99.90;;;;;;5223563;28;20433;-49
2022/12/18 02:20:13;;;;;;;63.90;24.17;;;-5.80;99.90;;;;;;5226566;28;20459;-47
2022/12/18 02:22:49;;;;;;;67.50;22.10;;;-5.70;99.90;;;;;;5228219;28;20603;-49
2022/12/18 02:25:34;;;;;;;58.47;22.63;;;-5.80;99.90;;;;;;5220053;28;20441;-49
2022/12/18 02:28:11;;;;;;;69.07;24.90;;;-5.50;99.90;;;;;;5234720;28;20437;-48
2022/12/18 02:30:43;;;;;;;73.87;24.40;;;-5.50;99.90;;;;;;5218231;28;20436;-48
2022/12/18 02:33:15;;;;;;;79.77;23.30;;;-5.40;99.90;;;;;;5225039;28;20497;-48
2022/12/18 02:35:48;;;;;;;71.00;23.60;;;-5.40;99.90;;;;;;5212407;28;20510;-48
2022/12/18 02:38:19;;;;;;;57.30;21.73;;;-5.30;99.90;;;;;;5210084;28;20439;-48
2022/12/18 02:40:51;;;;;;;76.07;25.10;;;-5.40;99.90;;;;;;5227038;28;21000;-47
2022/12/18 02:43:22;;;;;;;77.17;25.57;;;-5.30;99.90;;;;;;5227357;28;20215;-46
2022/12/18 02:45:57;;;;;;;85.87;27.30;;;-5.30;99.90;;;;;;5216170;28;20454;-47
2022/12/18 02:48:33;;;;;;;76.40;27.20;;;-5.30;99.90;;;;;;5228460;28;20171;-47
2022/12/18 02:51:19;;;;;;;83.43;27.30;;;-5.40;99.90;;;;;;5211928;28;20533;-48
2022/12/18 02:53:58;;;;;;;88.17;27.30;;;-5.10;99.90;;;;;;5228186;28;20934;-47
2022/12/18 02:56:45;;;;;;;70.40;26.23;;;-5.20;99.90;;;;;;5226756;28;20531;-46
2022/12/18 02:59:23;;;;;;;71.47;24.50;;;-5.20;99.90;;;;;;5226232;28;20448;-46
2022/12/18 03:02:23;;;;;;;54.57;21.63;;;-5.30;99.90;;;;;;5229203;28;20444;-49
2022/12/18 03:05:22;;;;;;;86.10;26.93;;;-5.20;99.90;;;;;;5219774;28;20872;-46
2022/12/18 03:08:17;;;;;;;73.97;25.53;;;-5.20;99.90;;;;;;5217606;28;20434;-49
2022/12/18 03:11:10;;;;;;;82.00;27.40;;;-5.20;99.90;;;;;;5229077;28;20432;-48
2022/12/18 03:13:57;;;;;;;73.33;27.17;;;-5.20;99.90;;;;;;5223369;28;20448;-47
2022/12/18 03:16:30;;;;;;;96.40;29.23;;;-5.30;99.90;;;;;;5222311;28;20425;-45
2022/12/18 03:19:15;;;;;;;94.70;28.10;;;-5.50;99.90;;;;;;5225339;28;20933;-47
2022/12/18 03:21:50;;;;;;;88.53;29.20;;;-5.50;99.90;;;;;;5226185;28;20827;-47
2022/12/18 03:24:22;;;;;;;89.57;29.50;;;-5.50;99.90;;;;;;5215135;28;20465;-47
2022/12/18 03:26:57;;;;;;;94.10;29.33;;;-5.40;99.90;;;;;;5220044;28;20612;-47
2022/12/18 03:29:34;;;;;;;96.33;30.77;;;-5.50;99.90;;;;;;5225754;28;20460;-47
2022/12/18 03:32:10;;;;;;;101.37;32.67;;;-5.30;99.90;;;;;;5225822;28;20613;-47
2022/12/18 03:34:43;;;;;;;113.57;33.00;;;-5.30;99.90;;;;;;5243555;28;20479;-47
2022/12/18 03:37:15;;;;;;;84.23;28.93;;;-5.40;99.90;;;;;;5225024;28;20440;-49
2022/12/18 03:39:45;;;;;;;90.70;29.00;;;-5.40;99.90;;;;;;5219281;28;20852;-48
2022/12/18 03:42:21;;;;;;;94.87;31.50;;;-5.40;99.90;;;;;;5224067;28;20445;-48
2022/12/18 03:45:17;;;;;;;92.43;30.03;;;-5.40;99.90;;;;;;5228520;28;20195;-47
2022/12/18 03:47:56;;;;;;;79.00;29.50;;;-5.40;99.90;;;;;;5223537;28;20449;-47
2022/12/18 03:50:39;;;;;;;68.17;26.33;;;-5.40;99.90;;;;;;5224615;28;20767;-46
2022/12/18 03:53:38;;;;;;;70.10;25.23;;;-5.40;99.90;;;;;;5222918;28;20468;-48
2022/12/18 03:56:11;;;;;;;65.20;24.80;;;-5.50;99.90;;;;;;5221393;28;20926;-47
2022/12/18 03:58:44;;;;;;;79.53;27.37;;;-5.70;99.90;;;;;;5224727;28;20805;-47
2022/12/18 04:01:17;;;;;;;77.97;26.90;;;-5.80;99.90;;;;;;5219650;28;20447;-47
2022/12/18 04:03:49;;;;;;;74.20;26.10;;;-5.80;99.90;;;;;;5223600;28;20495;-47
2022/12/18 04:06:21;;;;;;;69.60;26.07;;;-5.80;99.90;;;;;;5226272;28;20445;-46
2022/12/18 04:08:52;;;;;;;81.63;25.40;;;-6.00;99.90;;;;;;5228421;28;20436;-46
2022/12/18 04:11:23;;;;;;;76.57;24.87;;;-5.80;99.90;;;;;;5226728;28;20448;-47
2022/12/18 04:13:58;;;;;;;76.53;25.83;;;-5.90;99.90;;;;;;5237125;28;20457;-46
2022/12/18 04:16:29;;;;;;;74.00;26.03;;;-6.00;99.90;;;;;;5217507;28;20195;-48
2022/12/18 04:18:59;;;;;;;72.90;23.60;;;-6.10;99.90;;;;;;5218906;28;20448;-45
2022/12/18 04:21:30;;;;;;;70.30;24.77;;;-6.20;99.90;;;;;;5227302;28;20437;-48
2022/12/18 04:24:00;;;;;;;76.30;23.57;;;-6.20;99.90;;;;;;5226210;28;20305;-46
2022/12/18 04:26:31;;;;;;;57.70;21.07;;;-6.20;99.90;;;;;;5223832;28;20639;-46
2022/12/18 04:29:02;;;;;;;64.33;23.97;;;-6.10;99.90;;;;;;5222548;28;20278;-47
2022/12/18 04:31:33;;;;;;;68.77;27.07;;;-6.00;99.90;;;;;;5223507;28;20202;-47
2022/12/18 04:34:04;;;;;;;75.60;22.23;;;-5.60;99.90;;;;;;5221142;28;20462;-47
2022/12/18 04:36:34;;;;;;;61.27;22.17;;;-5.70;99.90;;;;;;5221598;28;20183;-46
2022/12/18 04:39:05;;;;;;;63.43;23.10;;;-5.70;99.90;;;;;;5220930;28;20266;-47
2022/12/18 04:41:35;;;;;;;66.83;20.90;;;-5.80;99.90;;;;;;5223537;28;20229;-45
2022/12/18 04:44:06;;;;;;;53.97;21.90;;;-5.80;99.90;;;;;;5222960;28;20221;-47
2022/12/18 04:46:37;;;;;;;63.07;24.10;;;-5.90;99.90;;;;;;5216408;28;20179;-48
2022/12/18 04:49:10;;;;;;;62.93;22.03;;;-5.90;99.90;;;;;;5207430;28;20462;-49
2022/12/18 04:51:40;;;;;;;62.40;21.23;;;-5.90;99.90;;;;;;5201587;28;20179;-49
2022/12/18 04:54:11;;;;;;;58.83;20.80;;;-5.80;99.90;;;;;;5226035;28;20464;-49
2022/12/18 04:56:42;;;;;;;68.20;21.90;;;-5.80;99.90;;;;;;5222608;28;20186;-49
2022/12/18 04:59:12;;;;;;;63.00;21.70;;;-5.60;99.90;;;;;;5219801;28;20205;-48
2022/12/18 05:01:43;;;;;;;58.97;21.37;;;-5.70;99.90;;;;;;5220178;28;20554;-49
2022/12/18 05:04:14;;;;;;;67.27;22.00;;;-5.80;99.90;;;;;;5219396;28;20481;-48
2022/12/18 05:06:44;;;;;;;62.03;21.23;;;-5.90;99.90;;;;;;5221907;28;20174;-48
2022/12/18 05:09:15;;;;;;;64.00;20.43;;;-6.00;99.90;;;;;;5217560;28;20183;-48
2022/12/18 05:11:46;;;;;;;53.50;20.73;;;-6.00;99.90;;;;;;5215631;28;20179;-49
2022/12/18 05:14:17;;;;;;;53.23;19.90;;;-6.00;99.90;;;;;;5219790;28;20733;-46
2022/12/18 05:16:48;;;;;;;49.57;20.40;;;-5.80;99.90;;;;;;5220378;28;20436;-48
2022/12/18 05:19:18;;;;;;;54.97;20.10;;;-5.70;99.90;;;;;;5219280;28;20182;-46
2022/12/18 05:21:49;;;;;;;51.43;20.30;;;-5.80;99.90;;;;;;5220976;28;20183;-48
2022/12/18 05:24:19;;;;;;;54.67;21.17;;;-5.70;99.90;;;;;;5223087;28;20203;-48
2022/12/18 05:26:50;;;;;;;53.67;19.50;;;-5.60;99.90;;;;;;5218446;28;20179;-48
2022/12/18 05:29:21;;;;;;;49.60;20.33;;;-5.60;99.90;;;;;;5217794;28;20175;-49
2022/12/18 05:31:51;;;;;;;50.57;20.23;;;-5.60;99.90;;;;;;5220767;28;20186;-47
2022/12/18 05:34:22;;;;;;;46.77;18.53;;;-5.50;99.90;;;;;;5222044;28;20297;-46
2022/12/18 05:36:53;;;;;;;58.93;20.17;;;-5.50;99.90;;;;;;5218828;28;20184;-48
2022/12/18 05:39:23;;;;;;;54.47;17.80;;;-5.50;99.90;;;;;;5221806;28;20186;-48
2022/12/18 05:41:54;;;;;;;49.87;18.10;;;-5.80;99.90;;;;;;5218413;28;20195;-48
2022/12/18 05:44:25;;;;;;;51.40;18.17;;;-5.80;99.90;;;;;;5215558;28;20306;-47
2022/12/18 05:46:55;;;;;;;57.20;19.70;;;-5.80;99.90;;;;;;5221295;28;20187;-49
2022/12/18 05:49:26;;;;;;;58.60;21.20;;;-5.70;99.90;;;;;;5225108;28;20233;-48
2022/12/18 05:51:57;;;;;;;51.97;19.47;;;-5.60;99.90;;;;;;5225730;28;20195;-48
2022/12/18 05:54:28;;;;;;;51.67;18.73;;;-5.70;99.90;;;;;;5226932;28;20198;-48
2022/12/18 05:56:58;;;;;;;57.40;19.43;;;-5.70;99.90;;;;;;5221850;28;20179;-47
2022/12/18 05:59:29;;;;;;;59.07;19.70;;;-5.80;99.90;;;;;;5222020;28;20183;-47
2022/12/18 06:02:00;;;;;;;53.53;21.70;;;-5.80;99.90;;;;;;5216991;28;20198;-49
2022/12/18 06:04:31;;;;;;;48.87;18.27;;;-5.70;99.90;;;;;;5222301;28;20218;-49
2022/12/18 06:07:04;;;;;;;68.60;23.70;;;-5.80;99.90;;;;;;5222921;28;20270;-48
2022/12/18 06:09:35;;;;;;;65.23;22.90;;;-5.80;99.90;;;;;;5227895;28;20474;-48
2022/12/18 06:12:06;;;;;;;83.40;24.90;;;-5.80;99.90;;;;;;5223541;28;20453;-48
2022/12/18 06:14:37;;;;;;;72.00;25.47;;;-5.90;99.90;;;;;;5220659;28;20681;-46
2022/12/18 06:17:07;;;;;;;74.97;24.80;;;-6.00;99.90;;;;;;5227916;28;20528;-46
2022/12/18 06:19:38;;;;;;;75.57;24.80;;;-5.90;99.90;;;;;;5229750;28;20651;-46
2022/12/18 06:22:09;;;;;;;83.07;27.53;;;-5.90;99.90;;;;;;5223193;28;20342;-45
2022/12/18 06:24:39;;;;;;;82.37;26.10;;;-6.00;99.90;;;;;;5226980;28;20195;-48
2022/12/18 06:27:10;;;;;;;76.97;25.23;;;-6.00;99.90;;;;;;5231426;28;20532;-47
2022/12/18 06:29:41;;;;;;;89.47;25.90;;;-6.00;99.90;;;;;;5224665;28;20171;-46
2022/12/18 06:32:12;;;;;;;87.90;28.03;;;-5.90;99.90;;;;;;5226492;28;20175;-47
2022/12/18 06:34:42;;;;;;;89.03;27.93;;;-5.90;99.90;;;;;;5225975;28;20469;-47
2022/12/18 06:37:13;;;;;;;70.63;24.80;;;-5.80;99.90;;;;;;5222421;28;20236;-47
2022/12/18 06:39:43;;;;;;;82.47;27.20;;;-5.90;99.90;;;;;;5223294;28;20217;-49
2022/12/18 06:42:14;;;;;;;92.97;27.40;;;-6.00;99.90;;;;;;5226220;28;20175;-48
2022/12/18 06:44:45;;;;;;;85.30;26.07;;;-6.00;99.90;;;;;;5228277;28;20293;-48
2022/12/18 06:47:15;;;;;;;74.80;25.53;;;-6.00;99.90;;;;;;5222957;28;20205;-48
2022/12/18 06:49:46;;;;;;;75.37;26.13;;;-5.90;99.90;;;;;;5220584;28;20184;-48
2022/12/18 06:52:17;;;;;;;64.37;23.83;;;-5.80;99.90;;;;;;5224317;28;20171;-48
2022/12/18 06:54:48;;;;;;;75.00;23.40;;;-5.70;99.90;;;;;;5222825;28;20302;-48
2022/12/18 06:57:18;;;;;;;63.17;23.67;;;-5.70;99.90;;;;;;5216624;28;20592;-49
2022/12/18 06:59:49;;;;;;;88.13;27.73;;;-5.70;99.90;;;;;;5223904;28;20183;-48
2022/12/18 07:02:20;;;;;;;81.10;26.37;;;-5.70;99.90;;;;;;5216365;28;20263;-50
2022/12/18 07:04:50;;;;;;;78.33;27.47;;;-5.70;99.90;;;;;;5223268;28;20204;-49
2022/12/18 07:07:21;;;;;;;91.03;27.63;;;-5.80;99.90;;;;;;5221255;28;20605;-47
2022/12/18 07:09:52;;;;;;;67.90;25.60;;;-5.80;99.90;;;;;;5226983;28;20550;-48
2022/12/18 07:12:23;;;;;;;90.53;28.70;;;-5.80;99.90;;;;;;5224640;28;20187;-50
2022/12/18 07:14:53;;;;;;;72.57;27.50;;;-5.80;99.90;;;;;;5221307;28;20229;-50
2022/12/18 07:17:24;;;;;;;85.97;25.77;;;-5.90;99.90;;;;;;5220779;28;20429;-49
2022/12/18 07:19:55;;;;;;;91.43;29.60;;;-5.90;99.90;;;;;;5235137;28;20191;-47
2022/12/18 07:22:26;;;;;;;95.50;29.10;;;-6.00;99.90;;;;;;5219775;28;20195;-48
2022/12/18 07:24:56;;;;;;;81.07;24.87;;;-6.10;99.90;;;;;;5208935;28;20848;-48
2022/12/18 07:27:27;;;;;;;76.93;26.90;;;-6.10;99.90;;;;;;5228236;28;20520;-47
2022/12/18 07:29:58;;;;;;;81.37;24.37;;;-6.00;99.90;;;;;;5220400;28;20710;-47
2022/12/18 07:32:30;;;;;;;88.83;26.17;;;-6.00;99.90;;;;;;5218763;28;20232;-48
2022/12/18 07:35:01;;;;;;;77.70;25.83;;;-6.00;99.90;;;;;;5219275;28;20277;-48
2022/12/18 07:37:31;;;;;;;84.47;24.80;;;-6.00;99.90;;;;;;5221759;28;20442;-49
2022/12/18 07:40:02;;;;;;;84.33;26.17;;;-6.00;99.90;;;;;;5215479;28;20562;-49
2022/12/18 07:42:34;;;;;;;88.40;26.90;;;-6.00;99.90;;;;;;5209109;28;20194;-48
2022/12/18 07:45:05;;;;;;;74.43;25.70;;;-6.10;99.90;;;;;;5214816;28;20539;-47
2022/12/18 07:47:36;;;;;;;78.93;24.37;;;-6.10;99.90;;;;;;5224131;28;20441;-47
2022/12/18 07:50:07;;;;;;;101.13;26.73;;;-6.10;99.90;;;;;;5215180;28;20464;-50
2022/12/18 07:52:38;;;;;;;82.80;27.00;;;-6.10;99.90;;;;;;5216867;28;20261;-49
2022/12/18 07:55:09;;;;;;;80.77;26.20;;;-6.10;99.90;;;;;;5220226;28;20674;-48
2022/12/18 07:57:40;;;;;;;80.67;26.40;;;-6.10;99.90;;;;;;5222483;28;20767;-51
2022/12/18 08:00:12;;;;;;;86.30;26.43;;;-6.20;99.90;;;;;;5220637;28;20182;-50
2022/12/18 08:02:42;;;;;;;87.77;28.00;;;-6.20;99.90;;;;;;5224224;28;20210;-49
2022/12/18 08:05:13;;;;;;;88.13;27.90;;;-6.20;99.90;;;;;;5225989;28;20463;-48
2022/12/18 08:07:44;;;;;;;105.13;28.53;;;-6.20;99.90;;;;;;5226282;28;20179;-50
2022/12/18 08:10:15;;;;;;;80.63;26.57;;;-6.20;99.90;;;;;;5224378;28;20191;-50
2022/12/18 08:12:49;;;;;;;84.30;24.50;;;-6.20;99.90;;;;;;5235193;28;20429;-50
2022/12/18 08:15:20;;;;;;;67.37;26.20;;;-6.10;99.90;;;;;;5225540;28;20481;-48
2022/12/18 08:17:51;;;;;;;84.63;26.43;;;-6.00;99.90;;;;;;5225457;28;20491;-49
2022/12/18 08:20:21;;;;;;;82.47;27.20;;;-5.90;99.90;;;;;;5229543;28;20245;-48
2022/12/18 08:22:52;;;;;;;79.13;26.80;;;-5.80;99.90;;;;;;5220554;28;20682;-47
2022/12/18 08:25:23;;;;;;;71.67;25.87;;;-5.70;99.90;;;;;;5221441;28;20179;-48
2022/12/18 08:27:53;;;;;;;54.90;22.63;;;-5.80;99.90;;;;;;5220504;28;20195;-48
2022/12/18 08:30:24;;;;;;;62.33;23.90;;;-5.70;99.90;;;;;;5203149;28;20213;-49
2022/12/18 08:32:54;;;;;;;61.60;24.57;;;-5.60;99.90;;;;;;5221816;28;20374;-46
2022/12/18 08:35:25;;;;;;;74.43;28.20;;;-5.60;99.90;;;;;;5238244;28;20221;-50
2022/12/18 08:37:56;;;;;;;65.13;24.43;;;-5.60;99.90;;;;;;5218871;28;20184;-51
2022/12/18 08:40:26;;;;;;;78.40;27.00;;;-5.70;99.90;;;;;;5217155;28;20217;-49
2022/12/18 08:45:46;;;;;;;59.17;21.80;;;-5.70;99.90;;;;;;5224745;28;20352;-48
2022/12/18 08:48:17;;;;;;;58.07;23.57;;;-5.80;99.90;;;;;;5225337;28;20830;-50
2022/12/18 08:50:56;;;;;;;69.07;22.87;;;-5.80;99.90;;;;;;5221872;28;20670;-50
2022/12/18 08:53:27;;;;;;;71.03;24.80;;;-5.70;99.90;;;;;;5219317;28;20445;-48
2022/12/18 08:55:58;;;;;;;71.97;24.20;;;-5.70;99.90;;;;;;5225016;28;20444;-48
2022/12/18 08:58:29;;;;;;;53.43;22.00;;;-5.70;99.90;;;;;;5226019;28;20441;-50
2022/12/18 09:01:05;;;;;;;59.10;23.07;;;-5.80;99.90;;;;;;5225632;28;20548;-48
2022/12/18 09:03:36;;;;;;;62.70;22.40;;;-5.80;99.90;;;;;;5222434;28;20469;-50
2022/12/18 09:06:07;;;;;;;57.57;22.20;;;-5.80;99.90;;;;;;5216516;28;20454;-50
2022/12/18 09:08:38;;;;;;;69.70;22.83;;;-5.90;99.90;;;;;;5221721;28;21012;-48
2022/12/18 09:11:24;;;;;;;58.43;21.70;;;-5.80;99.90;;;;;;5220717;28;20481;-49
2022/12/18 09:13:56;;;;;;;58.23;22.20;;;-5.70;99.90;;;;;;5219045;28;20206;-50
2022/12/18 09:16:27;;;;;;;64.53;24.27;;;-5.70;99.90;;;;;;5215956;28;20486;-48
2022/12/18 09:18:59;;;;;;;58.03;22.53;;;-5.70;99.90;;;;;;5223062;28;20428;-50
2022/12/18 09:21:34;;;;;;;78.77;24.67;;;-5.60;99.90;;;;;;5218482;28;20438;-50
2022/12/18 09:24:05;;;;;;;59.30;21.80;;;-5.60;99.90;;;;;;5227332;28;21004;-49
2022/12/18 09:26:36;;;;;;;60.83;23.17;;;-5.70;99.90;;;;;;5216525;28;20964;-48
2022/12/18 09:29:07;;;;;;;67.57;24.00;;;-5.50;99.90;;;;;;5215934;28;20434;-49
2022/12/18 09:31:39;;;;;;;71.63;22.87;;;-5.50;99.90;;;;;;5223671;28;20426;-48
2022/12/18 09:34:09;;;;;;;64.33;22.70;;;-5.40;99.90;;;;;;5221921;28;20219;-50
2022/12/18 09:36:40;;;;;;;64.40;24.30;;;-5.40;99.90;;;;;;5224684;28;20437;-47
2022/12/18 09:39:11;;;;;;;63.20;23.90;;;-5.50;99.90;;;;;;5222656;28;20273;-47
2022/12/18 09:41:56;;;;;;;65.90;24.27;;;-5.50;99.90;;;;;;5223320;28;20186;-48
2022/12/18 09:44:35;;;;;;;74.33;23.30;;;-5.40;99.90;;;;;;5224729;28;20574;-48
2022/12/18 09:47:23;;;;;;;57.20;22.87;;;-5.40;99.90;;;;;;5222942;28;21037;-49
2022/12/18 09:50:00;;;;;;;55.00;19.90;;;-5.30;99.90;;;;;;5236945;28;20441;-50
2022/12/18 09:52:42;;;;;;;67.83;23.07;;;-5.10;99.90;;;;;;5223777;28;20460;-48
2022/12/18 09:55:28;;;;;;;69.50;22.63;;;-5.00;99.90;;;;;;5225190;28;21687;-48
2022/12/18 09:58:11;;;;;;;66.33;24.30;;;-4.90;99.90;;;;;;5223128;28;20433;-50
2022/12/18 10:00:42;;;;;;;75.43;25.77;;;-4.60;99.90;;;;;;5217427;28;20429;-48
2022/12/18 10:03:15;;;;;;;73.57;25.60;;;-4.50;99.90;;;;;;5223952;28;20851;-47
2022/12/18 10:05:54;;;;;;;71.60;23.93;;;-4.60;99.90;;;;;;5212849;28;20847;-49
2022/12/18 10:08:43;;;;;;;69.63;24.30;;;-4.50;99.90;;;;;;5214610;28;20452;-48
2022/12/18 10:11:42;;;;;;;79.87;25.20;;;-4.60;99.90;;;;;;5218091;28;20827;-47
2022/12/18 10:14:49;;;;;;;61.00;23.03;;;-4.70;99.90;;;;;;5223009;28;20449;-48
2022/12/18 10:17:46;;;;;;;58.63;20.97;;;-4.50;99.90;;;;;;5220552;28;20444;-47
2022/12/18 10:20:38;;;;;;;85.73;27.30;;;-4.60;99.90;;;;;;5216954;28;20472;-48
2022/12/18 10:24:06;;;;;;;63.10;24.13;;;-4.70;99.90;;;;;;5221462;28;20477;-48
2022/12/18 10:26:37;;;;;;;70.00;24.00;;;-4.60;99.90;;;;;;5164261;28;20537;-47
2022/12/18 10:29:13;;;;;;;77.57;26.00;;;-4.60;99.90;;;;;;5182928;28;20923;-48
2022/12/18 10:31:43;;;;;;;65.10;24.27;;;-4.60;99.90;;;;;;5199921;28;20429;-47
2022/12/18 10:34:14;;;;;;;77.67;23.03;;;-4.50;99.90;;;;;;5221032;28;20464;-47
2022/12/18 10:36:47;;;;;;;57.73;22.80;;;-4.30;99.90;;;;;;5223589;28;20183;-48
2022/12/18 10:39:23;;;;;;;65.60;21.87;;;-4.20;99.90;;;;;;5220442;28;20240;-47
2022/12/18 10:42:15;;;;;;;60.70;23.53;;;-4.20;99.90;;;;;;5229025;28;20433;-47
2022/12/18 10:45:00;;;;;;;69.40;23.93;;;-4.20;99.90;;;;;;5222912;28;20469;-47
2022/12/18 10:47:33;;;;;;;62.07;23.23;;;-4.20;99.90;;;;;;5215178;28;20487;-50
2022/12/18 10:50:04;;;;;;;60.07;22.17;;;-4.10;99.90;;;;;;5212632;28;20445;-48
2022/12/18 10:52:35;;;;;;;64.07;24.93;;;-4.00;99.90;;;;;;5222082;28;20956;-48
2022/12/18 10:55:15;;;;;;;58.53;25.20;;;-4.00;99.90;;;;;;5225026;28;20445;-48
2022/12/18 10:57:46;;;;;;;64.37;24.77;;;-3.90;99.90;;;;;;5224132;28;20184;-48
2022/12/18 11:00:29;;;;;;;75.10;25.63;;;-3.90;99.90;;;;;;5222545;28;20553;-48
2022/12/18 11:02:59;;;;;;;75.53;27.23;;;-3.90;99.90;;;;;;5222572;28;20218;-48
2022/12/18 11:05:33;;;;;;;89.57;27.87;;;-3.90;99.90;;;;;;5217021;28;20433;-49
2022/12/18 11:08:04;;;;;;;79.20;25.50;;;-3.90;99.90;;;;;;5219171;28;20176;-48
2022/12/18 11:10:40;;;;;;;71.03;24.30;;;-3.70;99.90;;;;;;5218391;28;20430;-49
2022/12/18 11:13:26;;;;;;;70.27;24.50;;;-3.70;99.90;;;;;;5218179;28;20206;-48
2022/12/18 11:15:58;;;;;;;86.17;26.20;;;-3.80;99.90;;;;;;5216223;28;20437;-50
2022/12/18 11:18:34;;;;;;;79.57;26.20;;;-3.80;99.90;;;;;;5220894;28;20441;-48
2022/12/18 11:21:11;;;;;;;69.17;24.73;;;-3.70;99.90;;;;;;5217450;28;20456;-47
2022/12/18 11:23:51;;;;;;;81.63;27.10;;;-3.60;99.90;;;;;;5215153;28;20473;-48
2022/12/18 11:26:34;;;;;;;66.43;24.43;;;-3.40;99.90;;;;;;5217912;28;20800;-46
2022/12/18 11:29:15;;;;;;;56.20;20.83;;;-3.30;99.90;;;;;;5217659;28;20429;-49
2022/12/18 11:31:46;;;;;;;61.20;23.80;;;-3.20;99.90;;;;;;5214708;28;20434;-50
2022/12/18 11:34:29;;;;;;;45.77;19.47;;;-3.20;99.90;;;;;;5213343;28;20492;-48
2022/12/18 11:37:02;;;;;;;49.03;20.20;;;-3.10;99.90;;;;;;5219511;28;20180;-49
2022/12/18 11:39:53;;;;;;;61.97;18.80;;;-3.20;99.90;;;;;;5219338;28;20956;-50
2022/12/18 11:42:51;;;;;;;57.57;22.07;;;-3.20;99.90;;;;;;5221920;28;20480;-49
2022/12/18 11:45:39;;;;;;;50.27;20.10;;;-3.20;99.90;;;;;;5218423;28;20442;-49
2022/12/18 11:48:24;;;;;;;54.70;21.97;;;-3.20;99.90;;;;;;5221391;28;20431;-50
2022/12/18 11:50:57;;;;;;;53.47;21.30;;;-3.20;99.90;;;;;;5217887;28;20959;-49
2022/12/18 11:53:30;;;;;;;55.00;21.20;;;-3.50;99.90;;;;;;5222590;28;20456;-48
2022/12/18 11:56:21;;;;;;;46.17;19.53;;;-3.50;99.90;;;;;;5220488;28;20563;-48
2022/12/18 11:59:17;;;;;;;58.10;21.77;;;-3.50;99.90;;;;;;5233837;28;20453;-49
2022/12/18 12:01:52;;;;;;;63.73;22.17;;;-3.50;99.90;;;;;;5219853;28;20856;-48
2022/12/18 12:04:41;;;;;;;65.50;24.13;;;-3.60;99.90;;;;;;5221845;28;20461;-48
2022/12/18 12:07:12;;;;;;;66.63;24.90;;;-3.80;99.90;;;;;;5238694;28;20422;-49
2022/12/18 12:10:13;;;;;;;57.77;23.47;;;-3.80;99.90;;;;;;5219359;28;20430;-48
2022/12/18 12:13:19;;;;;;;56.90;22.77;;;-4.00;99.90;;;;;;5217354;28;20246;-48
2022/12/18 12:15:58;;;;;;;54.63;23.30;;;-3.90;99.90;;;;;;5217913;28;20965;-48
2022/12/18 12:18:52;;;;;;;65.20;22.10;;;-4.00;99.90;;;;;;5219924;28;20447;-49
2022/12/18 12:21:40;;;;;;;57.40;23.30;;;-3.90;99.90;;;;;;5218055;28;20601;-49
2022/12/18 12:24:31;;;;;;;62.73;24.60;;;-3.60;99.90;;;;;;5222741;28;20478;-49
2022/12/18 12:27:01;;;;;;;57.20;22.57;;;-3.60;99.90;;;;;;5211621;28;20439;-49
2022/12/18 12:30:00;;;;;;;70.07;24.00;;;-3.60;99.90;;;;;;5220039;28;20951;-50
2022/12/18 12:32:56;;;;;;;62.07;22.20;;;-3.30;99.90;;;;;;5215405;28;20626;-49
2022/12/18 12:35:29;;;;;;;62.80;23.43;;;-3.30;99.90;;;;;;5231236;28;20957;-50
2022/12/18 12:38:09;;;;;;;50.93;19.47;;;-3.40;99.90;;;;;;5233815;28;20431;-49
2022/12/18 12:41:04;;;;;;;44.30;19.67;;;-3.40;99.90;;;;;;5216830;28;20760;-49
2022/12/18 12:43:43;;;;;;;43.03;20.33;;;-3.50;99.90;;;;;;5216835;28;21127;-48
2022/12/18 12:46:17;;;;;;;50.40;20.00;;;-3.40;99.90;;;;;;5222311;28;20443;-48
2022/12/18 12:48:50;;;;;;;52.33;21.43;;;-3.30;99.90;;;;;;5213454;28;20454;-50
2022/12/18 12:51:27;;;;;;;43.23;17.90;;;-3.10;99.90;;;;;;5216904;28;20447;-49
2022/12/18 12:54:00;;;;;;;48.07;17.70;;;-3.20;99.90;;;;;;5220398;28;20464;-50
2022/12/18 12:56:56;;;;;;;38.50;18.43;;;-3.30;99.90;;;;;;5221439;28;20455;-50
2022/12/18 12:59:27;;;;;;;44.83;19.27;;;-3.40;99.90;;;;;;5223062;28;20438;-48
2022/12/18 13:02:25;;;;;;;63.63;21.37;;;-3.60;99.90;;;;;;5221692;28;20453;-49
2022/12/18 13:05:17;;;;;;;60.03;24.80;;;-3.80;99.90;;;;;;5226819;28;20195;-50
2022/12/18 13:07:57;;;;;;;69.50;26.07;;;-3.90;99.90;;;;;;5226448;28;20422;-50
2022/12/18 13:10:34;;;;;;;58.73;23.50;;;-4.00;99.90;;;;;;5222336;28;20445;-48
2022/12/18 13:13:06;;;;;;;69.53;24.50;;;-4.00;99.90;;;;;;5205398;28;20555;-49